createdAt,value
2023-02-24T00:02:05.333Z,7.00
2023-02-24T00:04:39.565Z,7.00
2023-02-24T00:07:08.240Z,6.90
2023-02-24T00:09:35.005Z,6.90
2023-02-24T00:12:06.455Z,6.80
2023-02-24T00:14:35.435Z,6.80
2023-02-24T00:17:02.674Z,6.70
2023-02-24T00:19:34.769Z,6.70
2023-02-24T00:22:02.806Z,6.60
2023-02-24T00:24:30.232Z,6.50
2023-02-24T00:27:02.202Z,6.40
2023-02-24T00:29:30.059Z,6.30
2023-02-24T00:32:01.669Z,6.30
2023-02-24T00:34:34.046Z,6.20
2023-02-24T00:37:01.401Z,6.20
2023-02-24T00:39:30.330Z,6.10
2023-02-24T00:42:06.538Z,6.10
2023-02-24T00:44:39.312Z,6.00
2023-02-24T00:47:08.238Z,6.00
2023-02-24T00:49:36.495Z,5.80
2023-02-24T00:52:06.659Z,5.80
2023-02-24T00:54:36.586Z,5.70
2023-02-24T00:57:03.991Z,5.70
2023-02-24T00:59:31.072Z,5.60
2023-02-24T01:01:58.058Z,5.60
2023-02-24T01:04:25.518Z,5.60
2023-02-24T01:07:00.192Z,5.70
2023-02-24T01:09:30.106Z,5.70
2023-02-24T01:12:15.821Z,5.70
2023-02-24T01:14:45.322Z,5.60
2023-02-24T01:17:12.089Z,5.60
2023-02-24T01:19:39.176Z,5.60
2023-02-24T01:22:09.996Z,5.60
2023-02-24T01:24:41.457Z,5.60
2023-02-24T01:27:10.386Z,5.60
2023-02-24T01:29:39.595Z,5.60
2023-02-24T01:32:08.241Z,5.60
2023-02-24T01:34:35.165Z,5.60
2023-02-24T01:37:02.325Z,5.50
2023-02-24T01:39:29.204Z,5.50
2023-02-24T01:41:56.422Z,5.50
2023-02-24T01:44:25.232Z,5.40
2023-02-24T01:46:53.321Z,5.30
2023-02-24T01:49:34.156Z,5.30
2023-02-24T01:52:12.712Z,5.20
2023-02-24T01:54:45.777Z,5.10
2023-02-24T01:57:16.688Z,5.00
2023-02-24T01:59:46.020Z,5.00
2023-02-24T02:02:13.917Z,5.00
2023-02-24T02:04:42.963Z,5.00
2023-02-24T02:07:16.638Z,4.90
2023-02-24T02:09:45.453Z,4.90
2023-02-24T02:12:12.584Z,4.90
2023-02-24T02:14:43.411Z,4.90
2023-02-24T02:17:29.236Z,4.90
2023-02-24T02:20:32.509Z,4.90
2023-02-24T02:23:45.911Z,4.90
2023-02-24T02:26:58.254Z,5.00
2023-02-24T02:29:46.126Z,5.00
2023-02-24T02:32:31.867Z,5.00
2023-02-24T02:35:24.234Z,5.00
2023-02-24T02:38:15.335Z,5.10
2023-02-24T02:40:52.228Z,5.20
2023-02-24T02:43:36.998Z,5.20
2023-02-24T02:46:10.877Z,5.10
2023-02-24T02:48:56.352Z,5.10
2023-02-24T02:51:33.626Z,5.00
2023-02-24T02:54:35.115Z,4.90
2023-02-24T02:57:20.514Z,4.90
2023-02-24T02:59:56.767Z,4.80
2023-02-24T03:02:28.599Z,4.80
2023-02-24T03:05:05.132Z,4.70
2023-02-24T03:07:37.727Z,4.70
2023-02-24T03:10:17.663Z,4.60
2023-02-24T03:12:47.838Z,4.50
2023-02-24T03:15:17.437Z,4.60
2023-02-24T03:17:46.642Z,4.50
2023-02-24T03:20:29.325Z,4.50
2023-02-24T03:23:05.122Z,4.50
2023-02-24T03:25:44.594Z,4.50
2023-02-24T03:28:22.505Z,4.40
2023-02-24T03:30:58.633Z,4.40
2023-02-24T03:33:32.749Z,4.40
2023-02-24T03:36:01.882Z,4.30
2023-02-24T03:38:32.006Z,4.30
2023-02-24T03:40:59.231Z,4.30
2023-02-24T03:43:32.611Z,4.30
2023-02-24T03:46:01.407Z,4.40
2023-02-24T03:48:29.071Z,4.30
2023-02-24T03:50:56.685Z,4.30
2023-02-24T03:53:54.562Z,4.30
2023-02-24T03:56:22.470Z,4.30
2023-02-24T03:59:18.701Z,4.40
2023-02-24T04:02:04.016Z,4.40
2023-02-24T04:04:51.910Z,4.40
2023-02-24T04:07:39.632Z,4.40
2023-02-24T04:10:12.920Z,4.40
2023-02-24T04:12:47.133Z,4.40
2023-02-24T04:15:38.837Z,4.40
2023-02-24T04:18:18.550Z,4.50
2023-02-24T04:20:49.426Z,4.50
2023-02-24T04:23:18.773Z,4.60
2023-02-24T04:25:49.656Z,4.60
2023-02-24T04:28:19.082Z,4.60
2023-02-24T04:30:50.888Z,4.60
2023-02-24T04:33:18.200Z,4.70
2023-02-24T04:35:46.702Z,4.60
2023-02-24T04:38:13.588Z,4.60
2023-02-24T04:40:40.968Z,4.50
2023-02-24T04:43:08.285Z,4.50
2023-02-24T04:45:35.391Z,4.60
2023-02-24T04:48:03.155Z,4.60
2023-02-24T04:50:35.638Z,4.60
2023-02-24T04:53:07.145Z,4.60
2023-02-24T04:55:40.122Z,4.60
2023-02-24T04:58:11.593Z,4.60
2023-02-24T05:00:41.550Z,4.60
2023-02-24T05:03:11.557Z,4.70
2023-02-24T05:05:38.450Z,4.70
2023-02-24T05:08:09.924Z,4.70
2023-02-24T05:10:45.486Z,4.70
2023-02-24T05:13:18.098Z,4.70
2023-02-24T05:15:46.764Z,4.80
2023-02-24T05:18:17.108Z,4.70
2023-02-24T05:21:05.581Z,4.70
2023-02-24T05:23:39.326Z,4.70
2023-02-24T05:26:11.151Z,4.60
2023-02-24T05:28:40.653Z,4.60
2023-02-24T05:31:09.907Z,4.50
2023-02-24T05:33:37.941Z,4.50
2023-02-24T05:36:08.809Z,4.50
2023-02-24T05:38:38.244Z,4.30
2023-02-24T05:41:16.849Z,4.30
2023-02-24T05:43:52.629Z,4.20
2023-02-24T05:46:21.155Z,4.20
2023-02-24T05:48:51.221Z,4.10
2023-02-24T05:51:18.188Z,4.20
2023-02-24T05:53:44.989Z,4.20
2023-02-24T05:56:11.918Z,4.20
2023-02-24T05:58:39.325Z,4.30
2023-02-24T06:01:16.435Z,4.30
2023-02-24T06:03:47.957Z,4.40
2023-02-24T06:06:18.114Z,4.40
2023-02-24T06:08:50.097Z,4.40
2023-02-24T06:11:19.380Z,4.30
2023-02-24T06:13:50.396Z,4.30
2023-02-24T06:16:18.697Z,4.30
2023-02-24T06:18:50.015Z,4.30
2023-02-24T06:21:17.048Z,4.20
2023-02-24T06:23:43.949Z,4.20
2023-02-24T06:26:19.257Z,4.20
2023-02-24T06:28:48.044Z,4.20
2023-02-24T06:31:15.169Z,4.20
2023-02-24T06:33:42.386Z,4.20
2023-02-24T06:36:09.358Z,4.20
2023-02-24T06:38:37.199Z,4.20
2023-02-24T06:41:10.777Z,4.20
2023-02-24T06:43:39.595Z,4.20
2023-02-24T06:46:07.631Z,4.20
2023-02-24T06:48:34.478Z,4.20
2023-02-24T06:51:10.570Z,4.20
2023-02-24T06:53:43.187Z,4.30
2023-02-24T06:56:15.540Z,4.40
2023-02-24T06:58:53.181Z,4.50
2023-02-24T07:01:26.060Z,4.80
2023-02-24T07:04:17.735Z,5.20
2023-02-24T07:06:52.060Z,5.70
2023-02-24T07:09:21.890Z,6.00
2023-02-24T07:11:52.414Z,6.20
2023-02-24T07:14:24.880Z,6.20
2023-02-24T07:16:55.242Z,6.10
2023-02-24T07:19:32.415Z,6.10
2023-02-24T07:22:03.210Z,6.10
2023-02-24T07:24:40.656Z,5.90
2023-02-24T07:27:12.021Z,5.80
2023-02-24T07:29:39.393Z,5.80
2023-02-24T07:32:08.976Z,5.90
2023-02-24T07:34:40.053Z,5.90
2023-02-24T07:37:08.728Z,6.00
2023-02-24T07:39:37.144Z,6.10
2023-02-24T07:42:05.128Z,6.20
2023-02-24T07:44:33.192Z,6.20
2023-02-24T07:47:00.318Z,6.30
2023-02-24T07:49:30.342Z,6.40
2023-02-24T07:51:58.155Z,6.40
2023-02-24T07:54:30.002Z,6.50
2023-02-24T07:56:59.470Z,6.60
2023-02-24T07:59:35.636Z,6.50
2023-02-24T08:02:05.249Z,6.60
2023-02-24T08:04:33.216Z,6.60
2023-02-24T08:07:03.472Z,6.60
2023-02-24T08:10:03.627Z,6.60
2023-02-24T08:12:30.733Z,6.60
2023-02-24T08:15:00.290Z,6.60
2023-02-24T08:17:27.733Z,6.60
2023-02-24T08:20:14.070Z,6.70
2023-02-24T08:22:47.116Z,6.70
2023-02-24T08:25:19.057Z,6.80
2023-02-24T08:28:06.798Z,6.90
2023-02-24T08:30:40.786Z,6.90
2023-02-24T08:33:11.569Z,7.00
2023-02-24T08:35:44.935Z,7.10
2023-02-24T08:38:15.536Z,7.10
2023-02-24T08:40:52.177Z,7.10
2023-02-24T08:43:30.972Z,7.20
2023-02-24T08:46:13.388Z,7.20
2023-02-24T08:48:43.272Z,7.20
2023-02-24T08:51:15.127Z,7.20
2023-02-24T08:53:43.058Z,7.20
2023-02-24T08:56:12.906Z,7.30
2023-02-24T08:58:47.297Z,7.40
2023-02-24T09:01:20.083Z,7.50
2023-02-24T09:03:49.637Z,7.60
2023-02-24T09:06:25.362Z,7.60
2023-02-24T09:09:15.547Z,7.70
2023-02-24T09:11:44.853Z,7.90
2023-02-24T09:14:26.473Z,8.10
2023-02-24T09:17:02.811Z,8.30
2023-02-24T09:19:52.250Z,8.70
2023-02-24T09:22:33.312Z,9.00
2023-02-24T09:25:18.239Z,9.00
2023-02-24T09:28:17.451Z,9.10
2023-02-24T09:30:55.332Z,9.40
2023-02-24T09:33:39.091Z,10.20
2023-02-24T09:36:20.236Z,11.30
2023-02-24T09:39:01.677Z,11.90
2023-02-24T09:41:45.315Z,12.10
2023-02-24T09:44:18.520Z,12.10
2023-02-24T09:46:54.528Z,12.30
2023-02-24T09:49:39.918Z,12.50
2023-02-24T09:52:17.170Z,13.40
2023-02-24T09:55:16.121Z,14.00
2023-02-24T09:58:11.593Z,14.30
2023-02-24T10:00:44.439Z,14.50
2023-02-24T10:03:41.693Z,15.20
2023-02-24T10:06:20.652Z,16.10
2023-02-24T10:09:13.642Z,16.00
2023-02-24T10:11:53.622Z,16.30
2023-02-24T10:14:51.041Z,16.50
2023-02-24T10:17:25.649Z,17.00
2023-02-24T10:20:02.721Z,16.90
2023-02-24T10:22:53.279Z,17.20
2023-02-24T10:25:41.242Z,17.50
2023-02-24T10:28:24.599Z,18.40
2023-02-24T10:31:25.064Z,19.30
2023-02-24T10:34:13.865Z,19.70
2023-02-24T10:36:41.915Z,19.40
2023-02-24T10:39:20.486Z,18.70
2023-02-24T10:41:57.572Z,18.70
2023-02-24T10:44:36.022Z,17.70
2023-02-24T10:47:14.287Z,16.50
2023-02-24T10:49:44.886Z,15.80
2023-02-24T10:52:33.488Z,15.20
2023-02-24T10:55:08.804Z,14.90
2023-02-24T10:57:59.333Z,14.60
2023-02-24T11:00:51.460Z,14.30
2023-02-24T11:03:35.963Z,14.00
2023-02-24T11:06:03.676Z,14.10
2023-02-24T11:08:47.896Z,14.10
2023-02-24T11:11:25.646Z,14.00
2023-02-24T11:14:12.130Z,14.30
2023-02-24T11:17:16.355Z,14.90
2023-02-24T11:19:56.046Z,14.70
2023-02-24T11:22:31.649Z,14.10
2023-02-24T11:25:07.860Z,13.90
2023-02-24T11:27:35.217Z,14.10
2023-02-24T11:30:17.034Z,14.30
2023-02-24T11:33:03.700Z,14.30
2023-02-24T11:35:54.908Z,14.30
2023-02-24T11:38:50.213Z,14.20
2023-02-24T11:41:45.759Z,13.70
2023-02-24T11:44:19.884Z,13.50
2023-02-24T11:46:54.565Z,13.40
2023-02-24T11:49:27.216Z,13.10
2023-02-24T11:51:55.732Z,12.80
2023-02-24T11:54:23.381Z,12.80
2023-02-24T11:56:54.905Z,12.50
2023-02-24T11:59:38.260Z,12.30
2023-02-24T12:02:11.174Z,12.20
2023-02-24T12:04:48.787Z,12.10
2023-02-24T12:07:29.480Z,12.10
2023-02-24T12:10:18.308Z,12.10
2023-02-24T12:13:06.397Z,12.10
2023-02-24T12:15:50.756Z,12.00
2023-02-24T12:18:37.321Z,12.00
2023-02-24T12:21:09.159Z,11.90
2023-02-24T12:23:39.592Z,11.80
2023-02-24T12:26:13.488Z,11.60
2023-02-24T12:28:46.125Z,11.50
2023-02-24T12:31:32.216Z,11.50
2023-02-24T12:34:31.526Z,11.50
2023-02-24T12:37:32.517Z,11.50
2023-02-24T12:40:11.697Z,11.30
2023-02-24T12:42:57.199Z,11.40
2023-02-24T12:45:31.426Z,11.50
2023-02-24T12:48:29.100Z,11.50
2023-02-24T12:51:28.391Z,11.40
2023-02-24T12:54:03.836Z,11.30
2023-02-24T12:56:58.837Z,11.10
2023-02-24T12:59:29.446Z,11.00
2023-02-24T13:02:06.195Z,11.00
2023-02-24T13:05:16.936Z,11.00
2023-02-24T13:08:07.897Z,10.90
2023-02-24T13:10:46.476Z,10.80
2023-02-24T13:13:37.715Z,10.80
2023-02-24T13:16:04.661Z,10.80
2023-02-24T13:18:34.238Z,10.70
2023-02-24T13:21:14.946Z,10.70
2023-02-24T13:23:52.454Z,10.70
2023-02-24T13:26:24.376Z,10.80
2023-02-24T13:29:10.219Z,10.90
2023-02-24T13:31:50.107Z,10.90
2023-02-24T13:34:33.517Z,10.90
2023-02-24T13:37:00.412Z,10.90
2023-02-24T13:39:41.378Z,10.80
2023-02-24T13:42:24.745Z,10.80
2023-02-24T13:45:03.479Z,10.80
2023-02-24T13:48:04.730Z,10.70
2023-02-24T13:50:52.129Z,10.80
2023-02-24T13:53:50.349Z,10.70
2023-02-24T13:56:47.243Z,10.70
2023-02-24T13:59:32.175Z,10.60
2023-02-24T14:02:02.877Z,10.50
2023-02-24T14:04:36.207Z,10.50
2023-02-24T14:07:09.518Z,10.50
2023-02-24T14:09:45.004Z,10.50
2023-02-24T14:12:19.629Z,10.40
2023-02-24T14:14:47.670Z,10.40
2023-02-24T14:17:26.323Z,10.40
2023-02-24T14:19:53.101Z,10.30
2023-02-24T14:22:21.576Z,10.30
2023-02-24T14:24:48.595Z,10.30
2023-02-24T14:27:25.865Z,10.30
2023-02-24T14:29:53.743Z,10.30
2023-02-24T14:32:25.644Z,10.30
2023-02-24T14:34:54.821Z,10.30
2023-02-24T14:37:27.820Z,10.20
2023-02-24T14:39:59.592Z,10.20
2023-02-24T14:42:28.147Z,10.00
2023-02-24T14:44:57.731Z,10.00
2023-02-24T14:47:28.825Z,9.90
2023-02-24T14:50:02.420Z,9.90
2023-02-24T14:52:38.660Z,9.90
2023-02-24T14:55:42.910Z,9.80
2023-02-24T14:58:27.820Z,9.70
2023-02-24T15:01:01.264Z,9.70
2023-02-24T15:03:46.114Z,9.60
2023-02-24T15:06:20.995Z,9.60
2023-02-24T15:08:50.563Z,9.50
2023-02-24T15:11:17.275Z,9.50
2023-02-24T15:14:06.204Z,9.50
2023-02-24T15:16:42.832Z,9.40
2023-02-24T15:19:25.406Z,9.30
2023-02-24T15:21:52.197Z,9.30
2023-02-24T15:24:33.271Z,9.30
2023-02-24T15:27:03.628Z,9.20
2023-02-24T15:29:31.824Z,9.20
2023-02-24T15:32:00.790Z,9.10
2023-02-24T15:34:31.141Z,9.00
2023-02-24T15:37:04.498Z,9.10
2023-02-24T15:39:33.295Z,9.10
2023-02-24T15:42:28.486Z,9.00
2023-02-24T15:45:01.254Z,9.00
2023-02-24T15:47:32.502Z,9.00
2023-02-24T15:49:59.615Z,9.00
2023-02-24T15:52:29.454Z,8.90
2023-02-24T15:54:58.085Z,8.90
2023-02-24T15:57:25.458Z,8.80
2023-02-24T15:59:52.404Z,8.80
2023-02-24T16:02:21.700Z,8.80
2023-02-24T16:04:49.449Z,8.70
2023-02-24T16:07:22.229Z,8.70
2023-02-24T16:09:52.523Z,8.60
2023-02-24T16:12:24.068Z,8.60
2023-02-24T16:14:55.927Z,8.60
2023-02-24T16:17:25.906Z,8.50
2023-02-24T16:19:52.695Z,8.50
2023-02-24T16:22:19.488Z,8.50
2023-02-24T16:24:46.294Z,8.50
2023-02-24T16:27:18.764Z,8.40
2023-02-24T16:29:45.911Z,8.40
2023-02-24T16:32:13.832Z,8.40
2023-02-24T16:34:40.762Z,8.30
2023-02-24T16:37:26.503Z,8.30
2023-02-24T16:39:53.673Z,8.30
2023-02-24T16:42:21.910Z,8.30
2023-02-24T16:44:49.293Z,8.30
2023-02-24T16:47:23.120Z,8.40
2023-02-24T16:49:50.672Z,8.30
2023-02-24T16:52:20.723Z,8.30
2023-02-24T16:54:48.319Z,8.30
2023-02-24T16:57:15.345Z,8.20
2023-02-24T16:59:42.205Z,8.20
2023-02-24T17:02:24.600Z,8.20
2023-02-24T17:04:51.503Z,8.20
2023-02-24T17:07:20.841Z,8.20
2023-02-24T17:09:47.660Z,8.20
2023-02-24T17:12:17.183Z,8.20
2023-02-24T17:14:43.966Z,8.10
2023-02-24T17:17:11.668Z,8.20
2023-02-24T17:19:38.985Z,8.20
2023-02-24T17:22:06.144Z,8.20
2023-02-24T17:24:32.955Z,8.20
2023-02-24T17:27:00.544Z,8.20
2023-02-24T17:29:27.575Z,8.20
2023-02-24T17:31:54.622Z,8.10
2023-02-24T17:34:23.972Z,7.90
2023-02-24T17:36:50.826Z,7.90
2023-02-24T17:39:17.589Z,7.80
2023-02-24T17:41:44.429Z,7.80
2023-02-24T17:44:11.199Z,7.90
2023-02-24T17:46:38.300Z,7.80
2023-02-24T17:49:05.557Z,7.80
2023-02-24T17:51:32.445Z,7.80
2023-02-24T17:53:59.271Z,7.80
2023-02-24T17:56:26.071Z,7.70
2023-02-24T17:58:58.625Z,7.70
2023-02-24T18:01:26.207Z,7.70
2023-02-24T18:03:54.102Z,7.70
2023-02-24T18:06:21.251Z,7.70
2023-02-24T18:08:48.228Z,7.60
2023-02-24T18:11:16.948Z,7.60
2023-02-24T18:13:44.498Z,7.60
2023-02-24T18:16:13.732Z,7.60
2023-02-24T18:18:42.170Z,7.60
2023-02-24T18:21:08.987Z,7.60
2023-02-24T18:23:38.210Z,7.70
2023-02-24T18:26:06.512Z,7.60
2023-02-24T18:28:33.834Z,7.60
2023-02-24T18:31:03.274Z,7.60
2023-02-24T18:33:30.448Z,7.60
2023-02-24T18:36:01.546Z,7.60
2023-02-24T18:38:28.920Z,7.60
2023-02-24T18:41:07.553Z,7.60
2023-02-24T18:43:35.560Z,7.60
2023-02-24T18:46:04.619Z,7.60
2023-02-24T18:48:33.599Z,7.70
2023-02-24T18:51:01.251Z,7.70
2023-02-24T18:53:30.789Z,7.70
2023-02-24T18:56:25.216Z,7.70
2023-02-24T18:58:55.272Z,7.80
2023-02-24T19:01:25.905Z,7.80
2023-02-24T19:03:55.229Z,7.80
2023-02-24T19:06:23.569Z,7.80
2023-02-24T19:09:06.614Z,7.90
2023-02-24T19:11:34.267Z,7.90
2023-02-24T19:14:02.418Z,7.90
2023-02-24T19:16:29.893Z,8.00
2023-02-24T19:18:58.186Z,8.00
2023-02-24T19:21:26.927Z,7.90
2023-02-24T19:23:53.941Z,8.00
2023-02-24T19:26:26.750Z,7.90
2023-02-24T19:28:54.309Z,7.90
2023-02-24T19:31:24.265Z,7.90
2023-02-24T19:34:03.085Z,7.90
2023-02-24T19:36:32.545Z,7.90
2023-02-24T19:38:59.492Z,7.90
2023-02-24T19:41:26.566Z,7.90
2023-02-24T19:43:53.464Z,7.90
2023-02-24T19:46:20.549Z,7.90
2023-02-24T19:48:48.572Z,7.90
2023-02-24T19:51:21.845Z,7.90
2023-02-24T19:53:52.654Z,7.90
2023-02-24T19:56:27.890Z,7.90
2023-02-24T19:58:56.674Z,7.90
2023-02-24T20:01:24.587Z,7.90
2023-02-24T20:03:58.297Z,7.90
2023-02-24T20:06:28.485Z,7.90
2023-02-24T20:08:56.628Z,7.90
2023-02-24T20:11:24.573Z,7.90
2023-02-24T20:13:52.632Z,7.90
2023-02-24T20:16:21.138Z,7.90
2023-02-24T20:18:48.275Z,7.90
2023-02-24T20:21:15.227Z,7.90
2023-02-24T20:23:42.300Z,7.90
2023-02-24T20:26:11.642Z,7.90
2023-02-24T20:28:38.444Z,7.80
2023-02-24T20:31:12.303Z,7.80
2023-02-24T20:33:40.908Z,7.80
2023-02-24T20:36:20.517Z,7.70
2023-02-24T20:38:47.832Z,7.70
2023-02-24T20:41:14.838Z,7.60
2023-02-24T20:43:41.835Z,7.60
2023-02-24T20:46:15.912Z,7.50
2023-02-24T20:48:43.082Z,7.40
2023-02-24T20:51:10.886Z,7.40
2023-02-24T20:53:51.035Z,7.30
2023-02-24T20:56:24.673Z,7.20
2023-02-24T20:58:56.655Z,7.20
2023-02-24T21:01:23.480Z,7.10
2023-02-24T21:03:51.461Z,7.10
2023-02-24T21:06:19.018Z,7.00
2023-02-24T21:08:46.118Z,6.90
2023-02-24T21:11:14.123Z,6.80
2023-02-24T21:13:46.028Z,6.80
2023-02-24T21:16:14.211Z,6.60
2023-02-24T21:18:43.522Z,6.40
2023-02-24T21:21:11.187Z,6.30
2023-02-24T21:23:38.766Z,6.20
2023-02-24T21:26:07.460Z,6.10
2023-02-24T21:28:34.579Z,6.00
2023-02-24T21:31:07.082Z,6.00
2023-02-24T21:33:34.166Z,5.90
2023-02-24T21:36:03.418Z,5.80
2023-02-24T21:38:34.215Z,5.80
2023-02-24T21:41:07.249Z,5.80
2023-02-24T21:43:34.213Z,5.70
2023-02-24T21:46:02.972Z,5.70
2023-02-24T21:48:29.879Z,5.70
2023-02-24T21:51:09.526Z,5.70
2023-02-24T21:53:39.216Z,5.60
2023-02-24T21:56:11.014Z,5.60
2023-02-24T21:58:39.574Z,5.60
2023-02-24T22:01:14.517Z,5.60
2023-02-24T22:03:41.384Z,5.50
2023-02-24T22:06:11.147Z,5.50
2023-02-24T22:08:43.172Z,5.50
2023-02-24T22:11:12.061Z,5.40
2023-02-24T22:13:39.998Z,5.30
2023-02-24T22:16:12.702Z,5.20
2023-02-24T22:18:40.258Z,5.10
2023-02-24T22:21:12.671Z,5.10
2023-02-24T22:23:40.219Z,5.00
2023-02-24T22:26:09.728Z,5.10
2023-02-24T22:28:39.755Z,5.00
2023-02-24T22:31:08.576Z,4.90
2023-02-24T22:33:37.530Z,4.80
2023-02-24T22:36:06.852Z,4.70
2023-02-24T22:38:35.152Z,4.60
2023-02-24T22:41:04.734Z,4.60
2023-02-24T22:43:32.210Z,4.60
2023-02-24T22:46:05.121Z,4.60
2023-02-24T22:48:34.248Z,4.60
2023-02-24T22:51:02.834Z,4.60
2023-02-24T22:53:31.567Z,4.60
2023-02-24T22:55:58.479Z,4.60
2023-02-24T22:58:26.037Z,4.60
2023-02-24T23:00:54.646Z,4.60
2023-02-24T23:03:25.399Z,4.60
2023-02-24T23:05:56.991Z,4.60
2023-02-24T23:08:24.354Z,4.60
2023-02-24T23:10:51.675Z,4.50
2023-02-24T23:13:20.926Z,4.40
2023-02-24T23:15:48.965Z,4.30
2023-02-24T23:18:16.905Z,4.30
2023-02-24T23:20:45.031Z,4.20
2023-02-24T23:23:11.927Z,4.20
2023-02-24T23:25:38.997Z,4.20
2023-02-24T23:28:06.556Z,4.10
2023-02-24T23:30:33.437Z,3.90
2023-02-24T23:33:01.076Z,3.70
2023-02-24T23:35:27.901Z,3.60
2023-02-24T23:37:54.721Z,3.50
2023-02-24T23:40:26.095Z,3.50
2023-02-24T23:42:53.326Z,3.40
2023-02-24T23:45:20.194Z,3.30
2023-02-24T23:47:47.051Z,3.20
2023-02-24T23:50:13.852Z,3.20
2023-02-24T23:52:40.635Z,3.10
2023-02-24T23:55:07.765Z,3.00
2023-02-24T23:57:34.526Z,2.80
